TAF KFKL
KFKL 081720Z 0818/0918 21008KT P6SM BKN015 FM082200 27010KT P6SM BKN040 FM090900 00000KT P6SM BKN028 FM091200 00000KT P6SM BKN035 FM091400 18003KT P6SM BKN100=
METAR KFKL
WC KFKL
WS KFKL
WV KFKL